Time;durP1;ratioP1;P1;durP2;ratioP2;P2;SDS_P1;SDS_P2;PMS_P1;PMS_P2;Temp;Humidity;BMP_temperature;BMP_pressure;BME280_temperature;BME280_humidity;BME280_pressure;Samples;Min_cycle;Max_cycle;Signal;HPM_P1;HPM_P2
2023/01/02 00:00:50;;;;;;;8.20;2.90;;;8.90;99.90;;;;;;5034563;28;20512;-52
2023/01/02 00:03:17;;;;;;;6.32;2.90;;;8.90;99.90;;;;;;5041622;28;20368;-51
2023/01/02 00:05:43;;;;;;;6.28;2.65;;;8.90;99.90;;;;;;5052954;28;20036;-56
2023/01/02 00:08:10;;;;;;;6.72;3.20;;;8.90;99.90;;;;;;5052969;28;20088;-49
2023/01/02 00:10:37;;;;;;;5.72;2.45;;;8.90;99.90;;;;;;5053490;28;20045;-55
2023/01/02 00:13:04;;;;;;;6.75;2.40;;;8.90;99.90;;;;;;5034734;28;20068;-56
2023/01/02 00:15:31;;;;;;;8.32;2.28;;;8.80;99.90;;;;;;5034352;28;20042;-50
2023/01/02 00:17:58;;;;;;;4.43;2.10;;;8.80;99.90;;;;;;5034971;28;20358;-50
2023/01/02 00:20:25;;;;;;;6.25;2.25;;;8.80;99.90;;;;;;5033927;28;20160;-52
2023/01/02 00:22:51;;;;;;;10.20;2.50;;;8.70;99.90;;;;;;5034684;28;20045;-53
2023/01/02 00:25:18;;;;;;;7.13;2.13;;;8.80;99.90;;;;;;5034585;28;20469;-54
2023/01/02 00:27:45;;;;;;;7.50;2.10;;;8.70;99.90;;;;;;5032918;28;20095;-53
2023/01/02 00:30:11;;;;;;;6.57;2.53;;;8.70;99.90;;;;;;5034781;28;20041;-51
2023/01/02 00:32:38;;;;;;;7.50;2.25;;;8.70;99.90;;;;;;5034083;28;20061;-55
2023/01/02 00:35:05;;;;;;;7.25;2.13;;;8.70;99.90;;;;;;5034389;28;20088;-49
2023/01/02 00:37:32;;;;;;;6.82;2.10;;;8.70;99.90;;;;;;5033710;28;20484;-51
2023/01/02 00:39:58;;;;;;;6.35;2.13;;;8.60;99.90;;;;;;5033923;28;20041;-52
2023/01/02 00:42:26;;;;;;;8.02;2.38;;;8.60;99.90;;;;;;5033596;28;20067;-52
2023/01/02 00:44:52;;;;;;;5.75;2.20;;;8.60;99.90;;;;;;5033693;28;20041;-49
2023/01/02 00:47:19;;;;;;;6.68;2.30;;;8.60;99.90;;;;;;5046442;28;20102;-49
2023/01/02 00:49:46;;;;;;;10.77;2.22;;;8.60;99.90;;;;;;5052711;28;20072;-53
2023/01/02 00:52:12;;;;;;;5.40;2.35;;;8.50;99.90;;;;;;5053107;28;20464;-52
2023/01/02 00:54:39;;;;;;;7.80;2.22;;;8.60;99.90;;;;;;5052775;28;20127;-54
2023/01/02 00:57:06;;;;;;;4.85;2.00;;;8.60;99.90;;;;;;5040865;28;20117;-49
2023/01/02 00:59:33;;;;;;;6.95;2.30;;;8.60;99.90;;;;;;5033850;28;20124;-56
2023/01/02 01:01:59;;;;;;;6.15;2.30;;;8.50;99.90;;;;;;5034346;28;20444;-53
2023/01/02 01:04:26;;;;;;;7.47;1.77;;;8.60;99.90;;;;;;5053422;28;20045;-53
2023/01/02 01:06:53;;;;;;;7.10;2.00;;;8.50;99.90;;;;;;5053846;28;20037;-55
2023/01/02 01:09:20;;;;;;;5.45;2.00;;;8.50;99.90;;;;;;5053522;28;20073;-52
2023/01/02 01:11:46;;;;;;;3.83;1.60;;;8.50;99.90;;;;;;5053731;28;20041;-54
2023/01/02 01:14:13;;;;;;;6.03;2.20;;;8.40;99.90;;;;;;5050243;28;20053;-55
2023/01/02 01:16:40;;;;;;;5.97;1.70;;;8.40;99.90;;;;;;5033111;28;20079;-52
2023/01/02 01:19:07;;;;;;;6.78;1.50;;;8.40;99.90;;;;;;5033880;28;20427;-53
2023/01/02 01:21:34;;;;;;;5.43;1.67;;;8.40;99.90;;;;;;5033892;28;20037;-54
2023/01/02 01:24:01;;;;;;;4.20;1.75;;;8.30;99.90;;;;;;5033694;28;20053;-54
2023/01/02 01:26:27;;;;;;;8.07;1.63;;;8.30;99.90;;;;;;5032827;28;20412;-54
2023/01/02 01:28:54;;;;;;;5.57;1.20;;;8.20;99.90;;;;;;5032209;28;20045;-51
2023/01/02 01:31:21;;;;;;;3.15;1.20;;;8.20;99.90;;;;;;5033766;28;20121;-56
2023/01/02 01:33:48;;;;;;;7.20;1.50;;;8.20;99.90;;;;;;5033245;28;20038;-48
2023/01/02 01:36:14;;;;;;;6.18;1.70;;;8.20;99.90;;;;;;5048773;28;20038;-52
2023/01/02 01:38:41;;;;;;;6.47;1.40;;;8.10;99.90;;;;;;5033394;28;20346;-49
2023/01/02 01:41:08;;;;;;;6.13;1.33;;;8.10;99.90;;;;;;5033730;28;20099;-54
2023/01/02 01:43:35;;;;;;;6.15;1.75;;;8.10;99.90;;;;;;5033543;28;20492;-51
2023/01/02 01:46:02;;;;;;;6.47;1.40;;;8.00;99.90;;;;;;5036201;28;20037;-51
2023/01/02 01:48:28;;;;;;;4.18;1.05;;;8.00;99.90;;;;;;5037525;28;20033;-50
2023/01/02 01:50:55;;;;;;;6.20;1.33;;;8.00;99.90;;;;;;5037351;28;20037;-56
2023/01/02 01:53:22;;;;;;;4.45;1.35;;;8.00;99.90;;;;;;5043417;28;20037;-53
2023/01/02 01:55:49;;;;;;;3.65;1.10;;;8.00;99.90;;;;;;5057105;28;20465;-51
2023/01/02 01:58:16;;;;;;;4.80;1.10;;;8.00;99.90;;;;;;5048700;28;20049;-52
2023/01/02 02:00:42;;;;;;;6.13;1.13;;;7.90;99.90;;;;;;5036233;28;20054;-53
2023/01/02 02:03:09;;;;;;;2.92;0.70;;;7.90;99.90;;;;;;5041562;28;20041;-55
2023/01/02 02:05:36;;;;;;;7.35;1.45;;;7.90;99.90;;;;;;5038668;28;20038;-53
2023/01/02 02:08:03;;;;;;;2.15;0.90;;;7.90;99.90;;;;;;5057125;28;20554;-53
2023/01/02 02:10:29;;;;;;;3.42;0.90;;;7.90;99.90;;;;;;5057426;28;20036;-49
2023/01/02 02:12:56;;;;;;;5.32;1.23;;;7.90;99.90;;;;;;5056864;28;20080;-56
2023/01/02 02:15:23;;;;;;;7.57;1.42;;;7.90;99.90;;;;;;5043471;28;20049;-53
2023/01/02 02:17:50;;;;;;;5.75;1.10;;;7.80;99.90;;;;;;5036952;28;20033;-50
2023/01/02 02:20:16;;;;;;;6.03;1.60;;;7.80;99.90;;;;;;5037254;28;20479;-49
2023/01/02 02:22:43;;;;;;;5.53;1.27;;;7.80;99.90;;;;;;5037064;28;20057;-49
2023/01/02 02:25:10;;;;;;;6.57;1.38;;;7.80;99.90;;;;;;5038764;28;20045;-51
2023/01/02 02:27:37;;;;;;;5.55;1.30;;;7.70;99.90;;;;;;5054060;28;20059;-52
2023/01/02 02:30:03;;;;;;;5.55;1.52;;;7.70;99.90;;;;;;5036615;28;20554;-49
2023/01/02 02:32:30;;;;;;;5.40;1.40;;;7.70;99.90;;;;;;5036968;28;20495;-51
2023/01/02 02:34:57;;;;;;;5.18;1.20;;;7.70;99.90;;;;;;5036622;28;20045;-55
2023/01/02 02:37:23;;;;;;;5.53;1.23;;;7.70;99.90;;;;;;5036902;28;20096;-50
2023/01/02 02:39:50;;;;;;;5.68;1.30;;;7.70;99.90;;;;;;5036353;28;20037;-53
2023/01/02 02:42:17;;;;;;;4.10;1.27;;;7.60;99.90;;;;;;5036432;28;20097;-51
2023/01/02 02:44:44;;;;;;;6.18;1.30;;;7.60;99.90;;;;;;5035772;28;20487;-55
2023/01/02 02:47:10;;;;;;;5.53;1.38;;;7.60;99.90;;;;;;5036312;28;20103;-52
2023/01/02 02:49:37;;;;;;;10.55;1.50;;;7.60;99.90;;;;;;5036219;28;20049;-56
2023/01/02 02:52:04;;;;;;;8.32;1.42;;;7.50;99.90;;;;;;5035292;28;20468;-51
2023/01/02 02:54:30;;;;;;;6.18;1.27;;;7.50;99.90;;;;;;5036499;28;20045;-53
2023/01/02 02:56:58;;;;;;;3.92;0.90;;;7.50;99.90;;;;;;5034431;28;20140;-50
2023/01/02 02:59:24;;;;;;;4.93;1.13;;;7.50;99.90;;;;;;5036825;28;20103;-48
2023/01/02 03:01:51;;;;;;;5.97;1.30;;;7.50;99.90;;;;;;5056168;28;20388;-50
2023/01/02 03:04:19;;;;;;;6.03;1.30;;;7.40;99.90;;;;;;5056087;28;20543;-52
2023/01/02 03:06:45;;;;;;;6.88;1.85;;;7.40;99.90;;;;;;5052403;28;20462;-51
2023/01/02 03:09:12;;;;;;;7.50;1.40;;;7.40;99.90;;;;;;5055804;28;20048;-53
2023/01/02 03:11:39;;;;;;;6.07;1.45;;;7.40;99.90;;;;;;5056112;28;20111;-50
2023/01/02 03:14:06;;;;;;;7.05;1.70;;;7.40;99.90;;;;;;5055775;28;20489;-54
2023/01/02 03:16:32;;;;;;;4.13;1.20;;;7.40;99.90;;;;;;5056230;28;20518;-49
2023/01/02 03:18:59;;;;;;;5.43;1.67;;;7.40;99.90;;;;;;5055643;28;20099;-53
2023/01/02 03:21:26;;;;;;;6.90;1.75;;;7.40;99.90;;;;;;5053815;28;20562;-51
2023/01/02 03:23:57;;;;;;;6.95;2.08;;;7.40;99.90;;;;;;5054623;28;20631;-54
2023/01/02 03:26:23;;;;;;;4.85;1.35;;;7.40;99.90;;;;;;5055100;28;20049;-54
2023/01/02 03:28:50;;;;;;;6.03;1.77;;;7.40;99.90;;;;;;5042334;28;20037;-53
2023/01/02 03:31:17;;;;;;;4.55;1.80;;;7.40;99.90;;;;;;5035892;28;20069;-49
2023/01/02 03:33:44;;;;;;;7.78;1.80;;;7.30;99.90;;;;;;5035971;28;20068;-52
2023/01/02 03:36:10;;;;;;;4.38;1.70;;;7.30;99.90;;;;;;5035417;28;20049;-52
2023/01/02 03:38:37;;;;;;;9.10;1.88;;;7.30;99.90;;;;;;5035773;28;20041;-56
2023/01/02 03:41:04;;;;;;;11.13;2.20;;;7.30;99.90;;;;;;5051580;28;20041;-56
2023/01/02 03:43:31;;;;;;;4.80;1.88;;;7.30;99.90;;;;;;5055384;28;20468;-50
2023/01/02 03:45:57;;;;;;;6.53;2.35;;;7.30;99.90;;;;;;5055180;28;20106;-54
2023/01/02 03:48:24;;;;;;;5.32;2.13;;;7.30;99.90;;;;;;5054710;28;20506;-54
2023/01/02 03:50:51;;;;;;;6.90;2.15;;;7.30;99.90;;;;;;5055779;28;20052;-56
2023/01/02 03:53:18;;;;;;;7.70;2.25;;;7.30;99.90;;;;;;5053775;28;20043;-53
2023/01/02 03:55:44;;;;;;;8.88;2.10;;;7.20;99.90;;;;;;5052959;28;20072;-53
2023/01/02 03:58:11;;;;;;;8.27;2.28;;;7.20;99.90;;;;;;5046964;28;20069;-49
2023/01/02 04:00:38;;;;;;;8.82;2.15;;;7.30;99.90;;;;;;5041482;28;20036;-50
2023/01/02 04:03:04;;;;;;;9.48;2.33;;;7.30;99.90;;;;;;5054208;28;20053;-54
2023/01/02 04:05:31;;;;;;;4.72;1.60;;;7.30;99.90;;;;;;5054805;28;20067;-55
2023/01/02 04:07:58;;;;;;;7.38;1.75;;;7.30;99.90;;;;;;5054392;28;20040;-54
2023/01/02 04:10:25;;;;;;;6.15;1.70;;;7.30;99.90;;;;;;5048627;28;20026;-46
2023/01/02 04:12:52;;;;;;;6.68;1.60;;;7.30;99.90;;;;;;5034707;28;20528;-49
2023/01/02 04:15:19;;;;;;;4.45;1.77;;;7.30;99.90;;;;;;5032972;28;20045;-51
2023/01/02 04:17:46;;;;;;;7.13;1.65;;;7.40;99.90;;;;;;5039190;28;20033;-54
2023/01/02 04:20:13;;;;;;;7.43;1.73;;;7.40;99.90;;;;;;5054550;28;20048;-53
2023/01/02 04:22:40;;;;;;;7.78;1.80;;;7.40;99.90;;;;;;5054688;28;20040;-50
2023/01/02 04:25:06;;;;;;;7.03;1.35;;;7.40;99.90;;;;;;5049441;28;20128;-55
2023/01/02 04:27:33;;;;;;;5.30;1.67;;;7.40;99.90;;;;;;5051713;28;20183;-56
2023/01/02 04:30:00;;;;;;;6.20;1.50;;;7.40;99.90;;;;;;5034164;28;20200;-54
2023/01/02 04:32:27;;;;;;;5.68;1.60;;;7.40;99.90;;;;;;5034570;28;20033;-52
2023/01/02 04:34:53;;;;;;;8.68;1.50;;;7.50;99.90;;;;;;5033780;28;20042;-53
2023/01/02 04:37:20;;;;;;;8.05;1.50;;;7.50;99.90;;;;;;5034228;28;20510;-55
2023/01/02 04:39:47;;;;;;;5.95;1.58;;;7.50;99.90;;;;;;5033295;28;20045;-49
2023/01/02 04:42:14;;;;;;;9.60;1.95;;;7.50;99.90;;;;;;5034536;28;20045;-51
2023/01/02 04:44:40;;;;;;;5.47;1.60;;;7.50;99.90;;;;;;5034537;28;20073;-53
2023/01/02 04:47:07;;;;;;;7.68;1.80;;;7.50;99.90;;;;;;5033648;28;20045;-54
2023/01/02 04:49:34;;;;;;;4.53;1.63;;;7.50;99.90;;;;;;5037865;28;20037;-53
2023/01/02 04:52:00;;;;;;;8.50;1.70;;;7.50;99.90;;;;;;5048294;28;20080;-51
2023/01/02 04:54:27;;;;;;;8.02;1.80;;;7.60;99.90;;;;;;5034015;28;20045;-51
2023/01/02 04:56:54;;;;;;;7.55;2.00;;;7.50;99.90;;;;;;5034120;28;20109;-52
2023/01/02 04:59:21;;;;;;;9.82;1.70;;;7.60;99.90;;;;;;5051492;28;20041;-53
2023/01/02 05:01:47;;;;;;;9.05;1.85;;;7.60;99.90;;;;;;5052523;28;20045;-53
2023/01/02 05:04:14;;;;;;;6.90;1.63;;;7.60;99.90;;;;;;5054427;28;20048;-50
2023/01/02 05:06:41;;;;;;;4.90;1.42;;;7.60;99.90;;;;;;5036319;28;20045;-49
2023/01/02 05:09:08;;;;;;;9.48;2.13;;;7.60;99.90;;;;;;5033647;28;20095;-50
2023/01/02 05:11:34;;;;;;;11.07;2.00;;;7.60;99.90;;;;;;5033852;28;20452;-53
2023/01/02 05:14:01;;;;;;;7.20;1.52;;;7.60;99.90;;;;;;5033838;28;20046;-53
2023/01/02 05:16:33;;;;;;;7.10;1.67;;;7.70;99.90;;;;;;5032918;28;20045;-50
2023/01/02 05:19:00;;;;;;;9.50;1.73;;;7.70;99.90;;;;;;5032084;28;20060;-53
2023/01/02 05:24:12;;;;;;;5.65;1.77;;;7.70;99.90;;;;;;5033785;28;20037;-51
2023/01/02 05:26:39;;;;;;;6.85;1.90;;;7.70;99.90;;;;;;5039933;28;20448;-55
2023/01/02 05:29:05;;;;;;;10.45;1.77;;;7.70;99.90;;;;;;5037793;28;20088;-51
2023/01/02 05:31:32;;;;;;;6.00;1.80;;;7.70;99.90;;;;;;5033384;28;20041;-50
2023/01/02 05:33:59;;;;;;;6.95;1.40;;;7.70;99.90;;;;;;5033580;28;20095;-50
2023/01/02 05:36:26;;;;;;;7.95;1.52;;;7.70;99.90;;;;;;5033266;28;20113;-52
2023/01/02 05:38:52;;;;;;;7.95;2.55;;;7.80;99.90;;;;;;5033735;28;20045;-48
2023/01/02 05:41:19;;;;;;;7.35;1.50;;;7.80;99.90;;;;;;5038351;28;20095;-53
2023/01/02 05:43:46;;;;;;;5.13;1.63;;;7.80;99.90;;;;;;5052031;28;20041;-53
2023/01/02 05:46:13;;;;;;;8.23;1.80;;;7.80;99.90;;;;;;5053277;28;20045;-53
2023/01/02 05:48:39;;;;;;;4.82;1.50;;;7.80;99.90;;;;;;5052377;28;20073;-52
2023/01/02 05:51:06;;;;;;;10.27;2.17;;;7.80;99.90;;;;;;5052519;28;20040;-55
2023/01/02 05:53:33;;;;;;;10.00;1.45;;;7.80;99.90;;;;;;5034199;28;20481;-53
2023/01/02 05:55:59;;;;;;;5.05;1.15;;;7.80;99.90;;;;;;5039772;28;20049;-55
2023/01/02 05:58:26;;;;;;;7.85;1.80;;;7.80;99.90;;;;;;5041834;28;20037;-56
2023/01/02 06:00:53;;;;;;;6.10;1.55;;;7.80;99.90;;;;;;5033247;28;20061;-57
2023/01/02 06:03:20;;;;;;;8.43;2.08;;;7.80;99.90;;;;;;5035891;28;20073;-55
2023/01/02 06:05:47;;;;;;;8.48;1.55;;;7.80;99.90;;;;;;5038628;28;20045;-51
2023/01/02 06:08:13;;;;;;;6.95;1.33;;;7.80;99.90;;;;;;5033656;28;20042;-49
2023/01/02 06:10:40;;;;;;;8.40;1.52;;;7.80;99.90;;;;;;5033283;28;20099;-53
2023/01/02 06:13:07;;;;;;;7.07;1.30;;;7.80;99.90;;;;;;5047961;28;20029;-49
2023/01/02 06:15:33;;;;;;;4.13;1.20;;;7.80;99.90;;;;;;5052865;28;20052;-53
2023/01/02 06:18:00;;;;;;;10.10;1.58;;;7.80;99.90;;;;;;5051686;28;20116;-57
2023/01/02 06:20:27;;;;;;;7.45;1.40;;;7.90;99.90;;;;;;5044633;28;20049;-48
2023/01/02 06:22:54;;;;;;;9.80;1.63;;;7.90;99.90;;;;;;5034011;28;20052;-55
2023/01/02 06:25:22;;;;;;;8.15;1.75;;;8.00;99.90;;;;;;5033008;28;20558;-51
2023/01/02 06:27:49;;;;;;;7.85;1.50;;;8.00;99.90;;;;;;5032805;28;20064;-53
2023/01/02 06:30:16;;;;;;;6.82;1.52;;;8.00;99.90;;;;;;5032440;28;20128;-54
2023/01/02 06:32:42;;;;;;;6.75;1.23;;;8.00;99.90;;;;;;5039446;28;20091;-54
2023/01/02 06:35:09;;;;;;;6.68;1.20;;;8.10;99.90;;;;;;5053605;28;20496;-49
2023/01/02 06:37:36;;;;;;;8.60;1.33;;;8.10;99.90;;;;;;5045062;28;20045;-50
2023/01/02 06:40:02;;;;;;;5.93;1.35;;;8.10;99.90;;;;;;5056074;28;20049;-54
2023/01/02 06:42:29;;;;;;;8.55;1.65;;;8.10;99.90;;;;;;5053656;28;20479;-52
2023/01/02 06:44:58;;;;;;;6.82;1.40;;;8.10;99.90;;;;;;5053781;28;20079;-55
2023/01/02 06:47:25;;;;;;;7.53;1.40;;;8.10;99.90;;;;;;5056396;28;20107;-53
2023/01/02 06:49:52;;;;;;;7.95;1.50;;;8.10;99.90;;;;;;5054966;28;20041;-51
2023/01/02 06:52:18;;;;;;;6.30;1.33;;;8.10;99.90;;;;;;5043039;28;20073;-50
2023/01/02 06:54:45;;;;;;;9.00;2.13;;;8.10;99.90;;;;;;5036780;28;20045;-51
2023/01/02 06:57:12;;;;;;;7.43;1.67;;;8.20;99.90;;;;;;5035542;28;20042;-55
2023/01/02 06:59:40;;;;;;;9.63;1.48;;;8.20;99.90;;;;;;5036431;28;20052;-55
2023/01/02 07:02:07;;;;;;;6.25;1.30;;;8.20;99.90;;;;;;5039353;28;20044;-55
2023/01/02 07:04:33;;;;;;;7.72;1.40;;;8.20;99.90;;;;;;5044742;28;20152;-50
2023/01/02 07:07:00;;;;;;;9.18;1.55;;;8.20;99.90;;;;;;5049773;28;20049;-54
2023/01/02 07:09:27;;;;;;;6.35;1.55;;;8.20;99.90;;;;;;5055626;28;20468;-54
2023/01/02 07:11:54;;;;;;;5.95;1.40;;;8.20;99.90;;;;;;5054423;28;20041;-53
2023/01/02 07:14:21;;;;;;;7.35;1.67;;;8.10;99.90;;;;;;5042685;28;20558;-49
2023/01/02 07:16:47;;;;;;;11.82;1.73;;;8.10;99.90;;;;;;5053767;28;20460;-53
2023/01/02 07:19:14;;;;;;;8.20;1.40;;;8.10;99.90;;;;;;5054322;28;20412;-54
2023/01/02 07:21:41;;;;;;;3.67;1.17;;;8.00;99.90;;;;;;5055664;28;20060;-54
2023/01/02 07:24:08;;;;;;;9.15;1.60;;;7.90;99.90;;;;;;5056238;28;20468;-53
2023/01/02 07:26:34;;;;;;;6.40;1.50;;;7.90;99.90;;;;;;5050214;28;20040;-54
2023/01/02 07:29:01;;;;;;;8.73;1.40;;;7.80;99.90;;;;;;5055877;28;20075;-53
2023/01/02 07:31:28;;;;;;;5.65;1.40;;;7.70;99.90;;;;;;5044567;28;20108;-54
2023/01/02 07:33:55;;;;;;;5.55;1.40;;;7.70;99.90;;;;;;5043056;28;20450;-54
2023/01/02 07:36:23;;;;;;;9.60;1.70;;;7.70;99.90;;;;;;5055452;28;20045;-51
2023/01/02 07:38:49;;;;;;;7.60;1.50;;;7.70;99.90;;;;;;5053261;28;20036;-56
2023/01/02 07:41:16;;;;;;;4.00;1.40;;;7.60;99.90;;;;;;5053651;28;20071;-52
2023/01/02 07:43:43;;;;;;;6.72;1.30;;;7.60;99.90;;;;;;5051560;28;20048;-52
2023/01/02 07:46:10;;;;;;;6.10;1.50;;;7.60;99.90;;;;;;5039708;28;20038;-48
2023/01/02 07:48:37;;;;;;;6.18;1.90;;;7.60;99.90;;;;;;5051489;28;20049;-52
2023/01/02 07:51:03;;;;;;;11.40;1.75;;;7.50;99.90;;;;;;5051452;28;20049;-51
2023/01/02 07:53:30;;;;;;;8.32;1.42;;;7.50;99.90;;;;;;5052508;28;20455;-53
2023/01/02 07:55:57;;;;;;;10.02;2.30;;;7.40;99.90;;;;;;5050697;28;20059;-49
2023/01/02 07:58:24;;;;;;;13.75;1.90;;;7.40;99.90;;;;;;5034843;28;20120;-55
2023/01/02 08:00:52;;;;;;;7.47;1.50;;;7.40;99.90;;;;;;5043524;28;20511;-51
2023/01/02 08:03:24;;;;;;;5.68;1.55;;;7.30;99.90;;;;;;5036233;28;20048;-55
2023/01/02 08:05:50;;;;;;;8.00;1.40;;;7.30;99.90;;;;;;5034675;28;20084;-49
2023/01/02 08:08:17;;;;;;;5.88;1.48;;;7.30;99.90;;;;;;5042562;28;20040;-54
2023/01/02 08:10:44;;;;;;;8.48;1.38;;;7.20;99.90;;;;;;5038400;28;20354;-55
2023/01/02 08:13:10;;;;;;;8.63;1.60;;;7.20;99.90;;;;;;5035022;28;20049;-56
2023/01/02 08:15:37;;;;;;;13.50;2.15;;;7.20;99.90;;;;;;5038028;28;20114;-53
2023/01/02 08:18:04;;;;;;;8.02;1.50;;;7.10;99.90;;;;;;5043349;28;20037;-52
2023/01/02 08:20:31;;;;;;;15.85;3.70;;;7.10;99.90;;;;;;5033831;28;20102;-54
2023/01/02 08:22:57;;;;;;;6.30;1.35;;;7.10;99.90;;;;;;5033625;28;20095;-55
2023/01/02 08:25:24;;;;;;;8.73;1.73;;;7.00;99.90;;;;;;5041982;28;20053;-52
2023/01/02 08:27:51;;;;;;;4.82;1.40;;;7.00;99.90;;;;;;5052188;28;20083;-50
2023/01/02 08:30:18;;;;;;;6.30;1.20;;;7.00;99.90;;;;;;5043011;28;20128;-50
2023/01/02 08:32:44;;;;;;;6.95;1.33;;;7.00;99.90;;;;;;5032875;28;20041;-51
2023/01/02 08:35:11;;;;;;;8.32;1.48;;;6.90;99.90;;;;;;5034267;28;20045;-52
2023/01/02 08:37:38;;;;;;;6.28;1.50;;;6.90;99.90;;;;;;5034373;28;20388;-53
2023/01/02 08:40:04;;;;;;;5.43;1.50;;;6.90;99.90;;;;;;5039223;28;20546;-54
2023/01/02 08:42:31;;;;;;;9.60;1.48;;;7.00;99.90;;;;;;5035199;28;20060;-51
2023/01/02 08:44:58;;;;;;;7.32;1.38;;;6.90;99.90;;;;;;5053334;28;20385;-54
2023/01/02 08:47:25;;;;;;;7.47;1.50;;;6.90;99.90;;;;;;5054558;28;20045;-49
2023/01/02 08:49:51;;;;;;;5.35;1.40;;;6.90;99.90;;;;;;5052350;28;20049;-55
2023/01/02 08:52:18;;;;;;;7.32;1.50;;;7.00;99.90;;;;;;5033567;28;20047;-53
2023/01/02 08:54:45;;;;;;;5.45;1.33;;;7.00;99.90;;;;;;5046961;28;20057;-51
2023/01/02 08:57:12;;;;;;;9.15;1.40;;;6.90;99.90;;;;;;5033760;28;20026;-53
2023/01/02 08:59:38;;;;;;;9.05;1.70;;;6.90;99.90;;;;;;5048661;28;20037;-51
2023/01/02 09:02:05;;;;;;;10.95;1.88;;;6.90;99.90;;;;;;5050203;28;20507;-53
2023/01/02 09:04:32;;;;;;;14.85;1.65;;;6.90;99.90;;;;;;5052591;28;20068;-52
2023/01/02 09:06:59;;;;;;;9.48;1.52;;;6.90;99.90;;;;;;5035938;28;20059;-48
2023/01/02 09:09:26;;;;;;;9.77;1.67;;;6.80;99.90;;;;;;5052888;28;20369;-53
2023/01/02 09:11:52;;;;;;;6.68;1.55;;;6.90;99.90;;;;;;5041982;28;20061;-53
2023/01/02 09:14:19;;;;;;;11.23;1.60;;;6.90;99.90;;;;;;5045699;28;20107;-52
2023/01/02 09:16:46;;;;;;;11.63;2.30;;;6.90;99.90;;;;;;5033914;28;20037;-52
2023/01/02 09:19:13;;;;;;;8.68;1.88;;;6.90;99.90;;;;;;5034639;28;20107;-53
2023/01/02 09:21:39;;;;;;;7.43;1.55;;;6.90;99.90;;;;;;5035203;28;20114;-52
2023/01/02 09:24:06;;;;;;;7.53;1.35;;;6.90;99.90;;;;;;5037282;28;20041;-53
2023/01/02 09:26:33;;;;;;;7.25;1.40;;;6.90;99.90;;;;;;5042790;28;20083;-48
2023/01/02 09:29:01;;;;;;;8.48;1.60;;;6.90;99.90;;;;;;5041009;28;20041;-53
2023/01/02 09:31:27;;;;;;;7.95;1.70;;;6.90;99.90;;;;;;5038753;28;20125;-51
2023/01/02 09:33:54;;;;;;;5.50;1.80;;;7.00;99.90;;;;;;5047012;28;20451;-53
2023/01/02 09:36:21;;;;;;;6.55;2.17;;;7.00;99.90;;;;;;5033773;28;20044;-46
2023/01/02 09:38:48;;;;;;;9.48;1.80;;;7.00;99.90;;;;;;5034306;28;20037;-48
2023/01/02 09:41:15;;;;;;;8.25;1.60;;;7.00;99.90;;;;;;5037574;28;20076;-47
2023/01/02 09:43:42;;;;;;;8.77;1.85;;;7.00;99.90;;;;;;5034559;28;20049;-49
2023/01/02 09:46:08;;;;;;;9.50;1.80;;;7.10;99.90;;;;;;5038776;28;20102;-52
2023/01/02 09:48:35;;;;;;;8.88;2.20;;;7.10;99.90;;;;;;5038562;28;20045;-52
2023/01/02 09:51:02;;;;;;;5.55;1.95;;;7.10;99.90;;;;;;5045906;28;20037;-50
2023/01/02 09:53:33;;;;;;;10.75;1.95;;;7.20;99.90;;;;;;5043685;28;20068;-51
2023/01/02 09:56:00;;;;;;;7.82;1.60;;;7.40;99.90;;;;;;5045239;28;20037;-45
2023/01/02 09:58:27;;;;;;;10.35;2.15;;;7.50;99.90;;;;;;5034582;28;20100;-51
2023/01/02 10:00:53;;;;;;;13.68;2.03;;;7.60;99.90;;;;;;5035415;28;20099;-55
2023/01/02 10:03:20;;;;;;;10.30;1.98;;;7.80;99.90;;;;;;5045841;28;20041;-47
2023/01/02 10:05:47;;;;;;;6.18;1.60;;;7.90;99.90;;;;;;5040732;28;20033;-48
2023/01/02 10:08:14;;;;;;;7.82;2.05;;;8.00;99.90;;;;;;5038161;28;20254;-54
2023/01/02 10:10:41;;;;;;;5.75;1.65;;;8.10;99.90;;;;;;5046423;28;20037;-53
2023/01/02 10:13:07;;;;;;;7.68;1.98;;;8.10;99.90;;;;;;5051635;28;20037;-52
2023/01/02 10:15:34;;;;;;;9.32;2.10;;;8.10;99.90;;;;;;5039571;28;20055;-51
2023/01/02 10:18:01;;;;;;;9.52;1.95;;;8.10;99.90;;;;;;5043204;28;20041;-51
2023/01/02 10:20:28;;;;;;;7.65;1.90;;;8.10;99.90;;;;;;5055764;28;20490;-52
2023/01/02 10:22:55;;;;;;;11.75;2.20;;;8.10;99.90;;;;;;5052419;28;20052;-51
2023/01/02 10:25:22;;;;;;;9.00;2.15;;;8.10;99.90;;;;;;5039715;28;20073;-51
2023/01/02 10:27:49;;;;;;;8.05;1.73;;;8.10;99.90;;;;;;5037178;28;20052;-52
2023/01/02 10:30:15;;;;;;;11.75;2.00;;;8.00;99.90;;;;;;5041437;28;20064;-45
2023/01/02 10:32:42;;;;;;;8.40;2.30;;;8.00;99.90;;;;;;5035229;28;20489;-55
2023/01/02 10:35:09;;;;;;;9.10;1.92;;;8.00;99.90;;;;;;5055422;28;20041;-53
2023/01/02 10:37:36;;;;;;;11.77;2.33;;;8.00;99.90;;;;;;5052101;28;20127;-53
2023/01/02 10:40:03;;;;;;;9.25;2.30;;;8.00;99.90;;;;;;5042539;28;20090;-52
2023/01/02 10:42:30;;;;;;;10.90;2.28;;;8.00;99.90;;;;;;5041073;28;20503;-53
2023/01/02 10:44:56;;;;;;;6.50;2.00;;;8.00;99.90;;;;;;5042242;28;20052;-54
2023/01/02 10:47:23;;;;;;;9.30;2.33;;;8.00;99.90;;;;;;5036124;28;20056;-51
2023/01/02 10:49:50;;;;;;;6.13;2.22;;;8.10;99.90;;;;;;5039601;28;20033;-52
2023/01/02 10:52:17;;;;;;;10.38;2.97;;;8.10;99.90;;;;;;5049499;28;20041;-47
2023/01/02 10:54:43;;;;;;;10.02;2.10;;;8.10;99.90;;;;;;5045091;28;20098;-53
2023/01/02 10:57:19;;;;;;;9.38;2.20;;;8.10;99.90;;;;;;5044396;28;20408;-52
2023/01/02 10:59:46;;;;;;;8.88;2.50;;;8.10;99.90;;;;;;5043284;28;20037;-53
2023/01/02 11:02:13;;;;;;;6.20;2.10;;;8.20;99.90;;;;;;5042623;28;20077;-52
2023/01/02 11:04:40;;;;;;;9.00;2.38;;;8.20;99.90;;;;;;5047455;28;20053;-49
2023/01/02 11:07:06;;;;;;;4.68;1.98;;;8.30;99.90;;;;;;5042774;28;20049;-48
2023/01/02 11:09:34;;;;;;;5.72;2.17;;;8.30;99.90;;;;;;5037129;28;20083;-51
2023/01/02 11:12:01;;;;;;;6.93;1.90;;;8.40;99.90;;;;;;5041065;28;20037;-48
2023/01/02 11:14:28;;;;;;;7.15;2.38;;;8.40;99.90;;;;;;5050824;28;20076;-51
2023/01/02 11:16:55;;;;;;;7.43;2.50;;;8.40;99.90;;;;;;5047715;28;20037;-53
2023/01/02 11:19:21;;;;;;;7.65;2.40;;;8.40;99.90;;;;;;5038702;28;20518;-51
2023/01/02 11:21:55;;;;;;;8.00;2.30;;;8.40;99.90;;;;;;5041388;28;20485;-50
2023/01/02 11:24:25;;;;;;;7.72;2.60;;;8.50;99.90;;;;;;5034876;28;20049;-52
2023/01/02 11:26:52;;;;;;;7.85;2.40;;;8.40;99.90;;;;;;5034659;28;20053;-52
2023/01/02 11:29:19;;;;;;;10.32;2.35;;;8.40;99.90;;;;;;5034528;28;20420;-54
2023/01/02 11:31:46;;;;;;;7.97;1.95;;;8.40;99.90;;;;;;5050814;28;20365;-55
2023/01/02 11:34:16;;;;;;;8.60;2.50;;;8.30;99.90;;;;;;5043047;28;20044;-49
2023/01/02 11:36:43;;;;;;;4.60;2.03;;;8.30;99.90;;;;;;5035660;28;20083;-53
2023/01/02 11:39:10;;;;;;;8.35;2.20;;;8.20;99.90;;;;;;5049912;28;20040;-49
2023/01/02 11:44:22;;;;;;;5.70;2.10;;;8.20;99.90;;;;;;5043266;28;20428;-53
2023/01/02 11:46:49;;;;;;;5.05;2.03;;;8.10;99.90;;;;;;5053888;28;20133;-49
2023/01/02 11:49:15;;;;;;;5.53;2.13;;;8.10;99.90;;;;;;5042650;28;20091;-50
2023/01/02 11:51:42;;;;;;;4.95;2.13;;;8.20;99.90;;;;;;5033495;28;20068;-52
2023/01/02 11:54:09;;;;;;;7.63;2.53;;;8.10;99.90;;;;;;5044379;28;20417;-53
2023/01/02 11:56:36;;;;;;;5.57;2.13;;;8.10;99.90;;;;;;5053820;28;20090;-53
2023/01/02 11:59:03;;;;;;;5.88;2.05;;;8.10;99.90;;;;;;5053037;28;20069;-48
2023/01/02 12:01:30;;;;;;;3.63;1.80;;;8.00;99.90;;;;;;5047776;28;20381;-56
2023/01/02 12:03:57;;;;;;;5.53;2.00;;;8.10;99.90;;;;;;5035924;28;20045;-54
2023/01/02 12:06:24;;;;;;;4.28;1.95;;;8.00;99.90;;;;;;5041605;28;20072;-50
2023/01/02 12:08:52;;;;;;;4.25;1.90;;;8.10;99.90;;;;;;5041380;28;20033;-49
2023/01/02 12:11:19;;;;;;;4.63;2.30;;;8.10;99.90;;;;;;5044331;28;20053;-50
2023/01/02 12:13:45;;;;;;;2.58;1.58;;;8.10;99.90;;;;;;5044253;28;20091;-46
2023/01/02 12:16:12;;;;;;;7.32;2.40;;;8.10;99.90;;;;;;5035444;28;20134;-52
2023/01/02 12:18:40;;;;;;;5.00;2.20;;;8.10;99.90;;;;;;5046860;28;20147;-51
2023/01/02 12:21:07;;;;;;;7.65;2.20;;;8.10;99.90;;;;;;5041012;28;20037;-52
2023/01/02 12:23:33;;;;;;;4.43;2.05;;;8.10;99.90;;;;;;5043086;28;20511;-52
2023/01/02 12:26:00;;;;;;;5.13;2.08;;;8.10;99.90;;;;;;5044943;28;20049;-50
2023/01/02 12:28:34;;;;;;;6.05;2.35;;;8.20;99.90;;;;;;5044589;28;20075;-52
2023/01/02 12:31:02;;;;;;;5.15;1.90;;;8.20;99.90;;;;;;5053389;28;20064;-48
2023/01/02 12:33:28;;;;;;;5.78;1.95;;;8.30;99.90;;;;;;5044034;28;20052;-49
2023/01/02 12:35:55;;;;;;;8.07;1.90;;;8.30;99.90;;;;;;5046824;28;20742;-47
2023/01/02 12:38:22;;;;;;;4.75;2.13;;;8.30;99.90;;;;;;5034333;28;20044;-53
2023/01/02 12:40:54;;;;;;;6.57;2.22;;;8.40;99.90;;;;;;5036657;28;20090;-51
2023/01/02 12:43:20;;;;;;;5.55;2.10;;;8.50;99.90;;;;;;5044811;28;20109;-52
2023/01/02 12:45:47;;;;;;;7.65;2.70;;;8.60;99.90;;;;;;5047047;28;20048;-52
2023/01/02 12:48:14;;;;;;;3.88;1.92;;;8.60;99.90;;;;;;5043924;28;20443;-48
2023/01/02 12:50:41;;;;;;;4.90;2.03;;;8.60;99.90;;;;;;5046834;28;20046;-46
2023/01/02 12:53:16;;;;;;;6.03;2.00;;;8.60;99.90;;;;;;5038206;28;20139;-49
2023/01/02 12:55:42;;;;;;;4.40;1.95;;;8.60;99.90;;;;;;5033707;28;20049;-49
2023/01/02 12:58:09;;;;;;;4.97;2.00;;;8.60;99.90;;;;;;5044536;28;20037;-50